Time;durP1;ratioP1;P1;durP2;ratioP2;P2;SDS_P1;SDS_P2;PMS_P1;PMS_P2;Temp;Humidity;BMP_temperature;BMP_pressure;BME280_temperature;BME280_humidity;BME280_pressure;Samples;Min_cycle;Max_cycle;Signal;HPM_P1;HPM_P2
2023/11/27 00:00:13;;;;;;;4.00;2.15;;;;;;;0.62;100.00;100486.91;4967370;28;20191;-66
2023/11/27 00:03:01;;;;;;;4.47;2.00;;;;;;;0.55;100.00;100484.97;4974858;28;20326;-68
2023/11/27 00:05:30;;;;;;;10.75;3.25;;;;;;;0.54;100.00;100477.97;4977817;28;20218;-67
2023/11/27 00:07:59;;;;;;;4.15;2.03;;;;;;;0.54;100.00;100472.63;4981742;28;20690;-66
2023/11/27 00:10:29;;;;;;;3.65;2.60;;;;;;;0.56;100.00;100482.16;4977106;28;20186;-66
2023/11/27 00:12:59;;;;;;;2.22;2.03;;;;;;;0.51;100.00;100479.09;4971641;28;20191;-68
2023/11/27 00:15:29;;;;;;;5.40;2.53;;;;;;;0.49;100.00;100486.38;4981992;28;20218;-67
2023/11/27 00:17:57;;;;;;;1.65;1.55;;;;;;;0.58;100.00;100485.50;4975531;28;20250;-67
2023/11/27 00:20:26;;;;;;;1.35;0.90;;;;;;;0.67;100.00;100483.81;4976961;28;20210;-67
2023/11/27 00:22:55;;;;;;;4.30;2.50;;;;;;;0.70;100.00;100481.66;4979425;28;20219;-67
2023/11/27 00:25:25;;;;;;;2.15;1.42;;;;;;;0.64;100.00;100474.25;4980202;28;20726;-67
2023/11/27 00:27:56;;;;;;;4.22;2.35;;;;;;;0.51;100.00;100467.63;4969359;28;20195;-67
2023/11/27 00:30:24;;;;;;;2.17;1.98;;;;;;;0.35;100.00;100474.41;4979157;28;20596;-67
2023/11/27 00:32:54;;;;;;;2.25;1.77;;;;;;;0.24;100.00;100469.25;4969565;28;20271;-68
2023/11/27 00:35:23;;;;;;;4.07;2.30;;;;;;;0.22;100.00;100470.41;4978133;28;20222;-67
2023/11/27 00:37:51;;;;;;;2.92;2.72;;;;;;;0.25;100.00;100472.75;4984408;28;20562;-67
2023/11/27 00:40:20;;;;;;;2.13;1.50;;;;;;;0.54;100.00;100473.47;4980423;28;20202;-67
2023/11/27 00:42:50;;;;;;;3.85;1.83;;;;;;;0.72;100.00;100470.88;4979409;28;20592;-68
2023/11/27 00:45:20;;;;;;;6.05;2.55;;;;;;;0.57;100.00;100473.19;4972924;28;20211;-66
2023/11/27 00:47:49;;;;;;;4.07;2.38;;;;;;;0.63;100.00;100472.56;4971646;28;20238;-68
2023/11/27 00:50:18;;;;;;;3.45;2.83;;;;;;;0.73;100.00;100475.19;4982190;28;20194;-67
2023/11/27 00:52:47;;;;;;;2.92;2.38;;;;;;;0.66;100.00;100471.47;4967846;28;20183;-67
2023/11/27 00:55:15;;;;;;;3.55;2.25;;;;;;;0.56;100.00;100478.66;4974088;28;20215;-68
2023/11/27 00:57:46;;;;;;;4.32;4.10;;;;;;;0.77;100.00;100463.28;4979232;28;20566;-68
2023/11/27 01:00:17;;;;;;;2.70;2.50;;;;;;;0.79;100.00;100462.13;4975318;28;20201;-66
2023/11/27 01:02:52;;;;;;;2.53;1.85;;;;;;;0.72;100.00;100466.38;4982024;28;20257;-66
2023/11/27 01:05:21;;;;;;;4.70;3.38;;;;;;;0.76;100.00;100459.78;4981919;28;20719;-67
2023/11/27 01:07:50;;;;;;;2.42;2.22;;;;;;;0.64;100.00;100452.13;4980171;28;20266;-67
2023/11/27 01:10:19;;;;;;;8.73;2.53;;;;;;;0.57;100.00;100451.06;4973113;28;20203;-67
2023/11/27 01:12:49;;;;;;;3.92;2.05;;;;;;;0.75;100.00;100449.25;4977923;28;20278;-68
2023/11/27 01:15:21;;;;;;;2.60;1.60;;;;;;;0.74;100.00;100455.56;4975789;28;20219;-66
2023/11/27 01:17:51;;;;;;;5.22;2.13;;;;;;;0.71;100.00;100445.22;4980239;28;20427;-67
2023/11/27 01:20:20;;;;;;;2.65;1.80;;;;;;;0.78;100.00;100454.28;4981897;28;20192;-67
2023/11/27 01:22:50;;;;;;;3.45;2.40;;;;;;;0.77;100.00;100448.13;4985973;28;20191;-67
2023/11/27 01:25:18;;;;;;;1.80;1.70;;;;;;;0.87;100.00;100448.88;4974359;28;20342;-64
2023/11/27 01:27:48;;;;;;;4.60;1.90;;;;;;;0.88;100.00;100449.72;4978416;28;20227;-67
2023/11/27 01:30:18;;;;;;;3.45;1.77;;;;;;;0.83;100.00;100446.66;4972322;28;20562;-66
2023/11/27 01:32:47;;;;;;;4.03;1.83;;;;;;;0.85;100.00;100448.22;4973142;28;20242;-69
2023/11/27 01:35:17;;;;;;;6.00;2.50;;;;;;;0.81;100.00;100443.34;4973416;28;20225;-66
2023/11/27 01:37:47;;;;;;;5.70;2.33;;;;;;;0.88;100.00;100441.72;4965138;28;20258;-66
2023/11/27 01:40:15;;;;;;;4.28;2.63;;;;;;;1.01;100.00;100439.56;4971214;28;20231;-66
2023/11/27 01:42:44;;;;;;;5.07;3.17;;;;;;;1.06;100.00;100441.75;4973468;28;20191;-68
2023/11/27 01:45:13;;;;;;;2.65;2.45;;;;;;;0.86;100.00;100435.72;4973206;28;20729;-67
2023/11/27 01:47:43;;;;;;;4.22;2.70;;;;;;;0.92;100.00;100435.09;4967719;28;20207;-67
2023/11/27 01:50:12;;;;;;;2.58;1.98;;;;;;;0.96;100.00;100433.00;4973463;28;20199;-67
2023/11/27 01:52:43;;;;;;;1.75;1.65;;;;;;;1.04;100.00;100423.25;4977576;28;20689;-67
2023/11/27 01:55:12;;;;;;;2.85;1.85;;;;;;;0.91;100.00;100414.81;4973647;28;20319;-67
2023/11/27 01:57:42;;;;;;;2.28;1.55;;;;;;;0.97;100.00;100422.16;4970274;28;20191;-66
2023/11/27 02:00:13;;;;;;;1.98;1.30;;;;;;;0.84;100.00;100411.06;4976086;28;20699;-67
2023/11/27 02:02:46;;;;;;;3.83;3.25;;;;;;;1.04;100.00;100407.25;4969426;28;20697;-66
2023/11/27 02:05:16;;;;;;;3.35;2.03;;;;;;;1.12;100.00;100404.66;4976752;28;20219;-66
2023/11/27 02:07:47;;;;;;;2.70;2.35;;;;;;;0.92;100.00;100408.47;4981018;28;20234;-66
2023/11/27 02:10:16;;;;;;;6.20;3.08;;;;;;;0.99;100.00;100414.88;4980166;28;20195;-66
2023/11/27 02:12:44;;;;;;;3.10;1.70;;;;;;;1.08;100.00;100413.97;4972955;28;20707;-65
2023/11/27 02:15:13;;;;;;;1.33;1.23;;;;;;;1.10;100.00;100412.00;4979124;28;20215;-67
2023/11/27 02:17:43;;;;;;;5.70;2.80;;;;;;;1.11;100.00;100416.34;4985284;28;20617;-67
2023/11/27 02:20:12;;;;;;;1.50;1.40;;;;;;;0.86;100.00;100409.09;4975464;28;20250;-67
2023/11/27 02:22:41;;;;;;;2.33;2.13;;;;;;;0.76;100.00;100408.31;4975574;28;20199;-67
2023/11/27 02:25:12;;;;;;;2.83;1.60;;;;;;;0.71;100.00;100410.59;4975560;28;20238;-67
2023/11/27 02:27:41;;;;;;;2.45;2.25;;;;;;;0.83;100.00;100412.03;4986514;28;20587;-68
2023/11/27 02:30:10;;;;;;;1.70;1.60;;;;;;;0.78;100.00;100406.34;4980977;28;20191;-67
2023/11/27 02:32:39;;;;;;;1.35;1.17;;;;;;;0.73;100.00;100405.94;4976095;28;20203;-67
2023/11/27 02:35:08;;;;;;;1.92;1.48;;;;;;;0.52;100.00;100403.59;4981736;28;20211;-67
2023/11/27 02:37:37;;;;;;;6.50;2.78;;;;;;;0.34;100.00;100400.88;4991349;28;20203;-67
2023/11/27 02:40:10;;;;;;;1.85;1.17;;;;;;;0.20;100.00;100408.50;4975513;28;20354;-67
2023/11/27 02:42:41;;;;;;;2.60;1.20;;;;;;;0.10;100.00;100405.88;4980832;28;20286;-67
2023/11/27 02:45:10;;;;;;;2.75;1.50;;;;;;;0.21;100.00;100405.69;4993136;28;20218;-68
2023/11/27 02:47:39;;;;;;;1.65;0.90;;;;;;;0.28;100.00;100397.97;4973720;28;20293;-67
2023/11/27 02:50:09;;;;;;;2.15;1.95;;;;;;;0.46;100.00;100392.69;4972904;28;20192;-66
2023/11/27 02:52:38;;;;;;;4.40;1.83;;;;;;;0.62;100.00;100398.19;4982140;28;20615;-67
2023/11/27 02:55:07;;;;;;;2.42;1.67;;;;;;;0.58;100.00;100388.84;4983313;28;20294;-66
2023/11/27 02:57:35;;;;;;;1.33;1.23;;;;;;;0.35;100.00;100383.91;4984599;28;20195;-66
2023/11/27 03:00:07;;;;;;;3.53;2.72;;;;;;;0.37;100.00;100379.28;4980747;28;20249;-67
2023/11/27 03:02:35;;;;;;;2.65;1.73;;;;;;;0.37;100.00;100379.28;4979329;28;20266;-66
2023/11/27 03:05:07;;;;;;;1.60;1.25;;;;;;;0.14;100.00;100375.38;4981973;28;20230;-67
2023/11/27 03:07:37;;;;;;;2.20;2.10;;;;;;;-0.04;100.00;100371.78;4976408;28;20203;-67
2023/11/27 03:10:07;;;;;;;2.83;1.50;;;;;;;-0.17;100.00;100371.28;4974600;28;20544;-67
2023/11/27 03:12:36;;;;;;;3.20;2.78;;;;;;;-0.29;100.00;100372.47;4974229;28;20678;-67
2023/11/27 03:15:07;;;;;;;2.60;1.83;;;;;;;-0.32;100.00;100362.94;4976211;28;20223;-67
2023/11/27 03:17:37;;;;;;;1.55;1.45;;;;;;;-0.47;100.00;100373.22;4992220;28;20187;-67
2023/11/27 03:20:12;;;;;;;5.32;2.70;;;;;;;-0.58;100.00;100368.06;4963390;28;20206;-68
2023/11/27 03:22:41;;;;;;;9.38;2.60;;;;;;;-0.57;100.00;100364.41;4971538;28;20205;-68
2023/11/27 03:25:10;;;;;;;9.65;1.60;;;;;;;-0.67;100.00;100360.09;4972579;28;20277;-68
2023/11/27 03:27:40;;;;;;;2.55;1.45;;;;;;;-0.77;100.00;100361.94;4979457;28;20253;-66
2023/11/27 03:30:12;;;;;;;4.38;2.28;;;;;;;-0.73;100.00;100363.34;4974196;28;20200;-65
2023/11/27 03:32:40;;;;;;;2.88;2.67;;;;;;;-0.71;100.00;100361.38;4973930;28;20269;-66
2023/11/27 03:35:09;;;;;;;2.30;2.08;;;;;;;-0.72;100.00;100354.38;4975443;28;20216;-67
2023/11/27 03:37:38;;;;;;;4.45;2.30;;;;;;;-0.54;100.00;100352.69;4983165;28;20194;-66
2023/11/27 03:40:08;;;;;;;2.97;2.17;;;;;;;-0.51;100.00;100363.84;4972960;28;20199;-66
2023/11/27 03:42:37;;;;;;;5.82;2.25;;;;;;;-0.49;100.00;100355.75;4983169;28;20722;-67
2023/11/27 03:45:07;;;;;;;2.25;1.92;;;;;;;-0.54;100.00;100353.53;4981326;28;20642;-65
2023/11/27 03:47:37;;;;;;;2.55;1.55;;;;;;;-0.57;100.00;100347.63;4971107;28;20212;-65
2023/11/27 03:50:06;;;;;;;2.65;2.22;;;;;;;-0.53;100.00;100352.50;4974720;28;20196;-68
2023/11/27 03:52:35;;;;;;;2.03;1.83;;;;;;;-0.47;100.00;100349.28;4981586;28;20199;-68
2023/11/27 03:55:04;;;;;;;2.80;2.00;;;;;;;-0.42;100.00;100351.50;4981808;28;20255;-67
2023/11/27 03:57:33;;;;;;;6.13;3.80;;;;;;;-0.29;100.00;100351.22;4974105;28;20574;-68
2023/11/27 04:00:03;;;;;;;1.48;1.38;;;;;;;-0.24;100.00;100354.25;4970258;28;20229;-68
2023/11/27 04:02:41;;;;;;;4.10;2.20;;;;;;;-0.19;100.00;100357.28;4973873;28;20254;-68
2023/11/27 04:05:10;;;;;;;3.78;2.45;;;;;;;-0.12;100.00;100358.41;4981455;28;20302;-67
2023/11/27 04:07:39;;;;;;;1.35;1.17;;;;;;;-0.15;100.00;100359.53;4974912;28;20216;-68
2023/11/27 04:10:09;;;;;;;7.13;2.83;;;;;;;-0.22;100.00;100344.31;4978418;28;20218;-67
2023/11/27 04:12:37;;;;;;;1.88;1.45;;;;;;;-0.27;100.00;100343.91;4973112;28;20191;-67
2023/11/27 04:15:07;;;;;;;3.55;2.75;;;;;;;-0.27;100.00;100341.25;4974517;28;20219;-68
2023/11/27 04:17:36;;;;;;;2.80;2.60;;;;;;;-0.21;100.00;100332.69;4981574;28;20253;-67
2023/11/27 04:20:11;;;;;;;3.05;2.75;;;;;;;-0.12;100.00;100331.81;4978926;28;20569;-68
2023/11/27 04:22:40;;;;;;;5.93;3.45;;;;;;;-0.12;100.00;100337.13;4974438;28;20574;-68
2023/11/27 04:25:09;;;;;;;2.22;1.58;;;;;;;0.16;100.00;100332.63;4980781;28;20317;-67
2023/11/27 04:27:38;;;;;;;11.85;4.15;;;;;;;-0.02;100.00;100329.94;4975370;28;20748;-67
2023/11/27 04:30:08;;;;;;;2.85;2.65;;;;;;;-0.02;100.00;100333.44;4975035;28;20196;-68
2023/11/27 04:32:36;;;;;;;2.80;1.95;;;;;;;-0.03;100.00;100333.56;4973265;28;20261;-67
2023/11/27 04:35:08;;;;;;;3.45;2.75;;;;;;;-0.01;100.00;100331.63;4974267;28;20262;-68
2023/11/27 04:37:37;;;;;;;4.15;2.25;;;;;;;0.07;100.00;100331.69;4981459;28;20203;-67
2023/11/27 04:40:10;;;;;;;2.65;2.40;;;;;;;0.04;100.00;100329.34;4980807;28;20190;-67
2023/11/27 04:42:39;;;;;;;4.05;3.05;;;;;;;0.11;100.00;100334.91;4989963;28;20662;-67
2023/11/27 04:45:08;;;;;;;2.38;1.52;;;;;;;0.41;100.00;100330.09;4982050;28;20217;-67
2023/11/27 04:47:37;;;;;;;3.70;3.40;;;;;;;0.42;100.00;100313.13;4974622;28;20199;-66
2023/11/27 04:50:08;;;;;;;3.95;3.65;;;;;;;0.45;100.00;100309.31;4975269;28;20191;-68
2023/11/27 04:52:37;;;;;;;3.38;2.08;;;;;;;0.31;100.00;100302.69;4974297;28;20229;-67
2023/11/27 04:55:07;;;;;;;3.28;3.08;;;;;;;0.26;100.00;100304.13;4974173;28;20274;-67
2023/11/27 04:57:36;;;;;;;5.10;2.65;;;;;;;0.20;100.00;100310.88;4966584;28;20192;-68
2023/11/27 05:00:06;;;;;;;3.95;3.55;;;;;;;0.34;100.00;100313.03;4986506;28;20276;-67
2023/11/27 05:02:35;;;;;;;4.65;3.05;;;;;;;0.29;100.00;100312.66;4982934;28;20286;-67
2023/11/27 05:05:04;;;;;;;6.13;3.97;;;;;;;0.25;100.00;100313.94;4979012;28;20225;-66
2023/11/27 05:07:33;;;;;;;3.50;1.88;;;;;;;0.18;100.00;100312.03;4976295;28;20213;-66
2023/11/27 05:10:02;;;;;;;5.32;1.88;;;;;;;0.37;100.00;100304.75;4974212;28;20210;-67
2023/11/27 05:12:31;;;;;;;2.42;2.22;;;;;;;0.44;100.00;100302.31;4974126;28;20192;-67
2023/11/27 05:15:01;;;;;;;4.32;3.03;;;;;;;0.39;100.00;100294.78;4980323;28;20215;-67
2023/11/27 05:17:31;;;;;;;4.53;2.55;;;;;;;0.38;100.00;100295.81;4981292;28;20278;-65
2023/11/27 05:20:00;;;;;;;7.30;4.22;;;;;;;0.30;100.00;100295.69;4975170;28;20191;-66
2023/11/27 05:22:28;;;;;;;5.10;2.35;;;;;;;0.37;100.00;100295.94;4978146;28;20227;-66
2023/11/27 05:24:58;;;;;;;8.70;3.58;;;;;;;0.31;100.00;100297.38;4972464;28;20231;-68
2023/11/27 05:27:27;;;;;;;1.45;1.35;;;;;;;0.47;100.00;100295.88;4973892;28;20192;-68
2023/11/27 05:29:56;;;;;;;3.38;3.05;;;;;;;0.48;100.00;100297.56;4973762;28;20246;-68
2023/11/27 05:32:25;;;;;;;3.45;2.83;;;;;;;0.62;100.00;100294.34;4984427;28;20194;-65
2023/11/27 05:34:54;;;;;;;4.70;2.92;;;;;;;0.56;100.00;100292.28;4988943;28;20242;-68
2023/11/27 05:37:23;;;;;;;4.53;3.15;;;;;;;0.60;100.00;100291.84;4975741;28;20202;-67
2023/11/27 05:39:52;;;;;;;3.35;2.38;;;;;;;0.55;100.00;100282.63;4986936;28;20207;-68
2023/11/27 05:42:26;;;;;;;2.85;2.22;;;;;;;0.55;100.00;100278.13;4977466;28;20210;-66
2023/11/27 05:44:59;;;;;;;2.15;1.92;;;;;;;0.56;100.00;100282.47;4987101;28;20592;-67
2023/11/27 05:47:28;;;;;;;4.85;3.88;;;;;;;0.69;100.00;100280.25;4979440;28;20278;-68
2023/11/27 05:49:57;;;;;;;2.50;1.73;;;;;;;0.67;100.00;100276.94;4977372;28;20302;-67
2023/11/27 05:52:26;;;;;;;7.90;2.10;;;;;;;0.66;100.00;100271.75;4982708;28;20194;-67
2023/11/27 05:54:55;;;;;;;4.30;2.75;;;;;;;0.59;100.00;100268.00;4984168;28;20234;-67
2023/11/27 05:57:26;;;;;;;6.47;3.40;;;;;;;0.55;100.00;100266.66;4989455;28;20196;-66
2023/11/27 05:59:55;;;;;;;5.95;1.75;;;;;;;0.50;100.00;100269.78;4977625;28;20215;-67
2023/11/27 06:02:24;;;;;;;4.55;3.63;;;;;;;0.47;100.00;100271.91;4977415;28;20191;-67
2023/11/27 06:04:53;;;;;;;2.85;2.28;;;;;;;0.41;100.00;100270.69;4976876;28;20216;-66
2023/11/27 06:07:21;;;;;;;2.78;1.95;;;;;;;0.50;100.00;100269.78;4984259;28;20243;-67
2023/11/27 06:09:50;;;;;;;1.95;1.65;;;;;;;0.49;100.00;100267.25;4977786;28;20572;-69
2023/11/27 06:12:23;;;;;;;2.83;1.92;;;;;;;0.49;100.00;100268.09;4982756;28;20674;-66
2023/11/27 06:14:53;;;;;;;2.55;1.67;;;;;;;0.42;100.00;100267.88;4977846;28;20246;-68
2023/11/27 06:17:22;;;;;;;9.38;1.90;;;;;;;0.42;100.00;100269.72;4978731;28;20571;-68
2023/11/27 06:19:51;;;;;;;5.15;2.05;;;;;;;0.51;100.00;100275.94;4976724;28;20196;-68
2023/11/27 06:22:19;;;;;;;5.63;3.08;;;;;;;0.39;100.00;100276.16;4975916;28;20254;-66
2023/11/27 06:24:49;;;;;;;2.03;1.70;;;;;;;0.36;100.00;100276.47;4976515;28;20231;-66
2023/11/27 06:31:02;;;;;;;3.40;3.10;;;;;;;0.36;100.00;100268.50;4978375;28;20198;-66
2023/11/27 06:33:30;;;;;;;8.60;3.28;;;;;;;0.43;100.00;100269.56;4981520;28;20195;-66
2023/11/27 06:36:00;;;;;;;4.43;3.08;;;;;;;0.48;100.00;100262.94;4976566;28;20282;-67
2023/11/27 06:38:29;;;;;;;8.98;2.25;;;;;;;0.53;100.00;100250.84;4970304;28;20226;-67
2023/11/27 06:40:58;;;;;;;4.53;2.15;;;;;;;0.82;100.00;100258.56;4975240;28;20195;-65
2023/11/27 06:43:27;;;;;;;3.05;2.85;;;;;;;0.76;100.00;100248.53;4985827;28;20184;-66
2023/11/27 06:45:56;;;;;;;3.88;1.80;;;;;;;0.62;100.00;100241.09;4979952;28;20191;-67
2023/11/27 06:48:26;;;;;;;2.08;1.35;;;;;;;0.56;100.00;100244.38;4976413;28;20192;-68
2023/11/27 06:50:55;;;;;;;4.25;2.42;;;;;;;0.57;100.00;100252.22;4982301;28;20199;-68
2023/11/27 06:53:24;;;;;;;4.45;3.35;;;;;;;0.52;100.00;100259.81;4989178;28;20286;-66
2023/11/27 06:55:53;;;;;;;2.92;2.28;;;;;;;0.54;100.00;100255.16;4976948;28;20646;-66
2023/11/27 06:58:22;;;;;;;1.90;1.58;;;;;;;0.77;100.00;100251.06;4973838;28;20191;-66
2023/11/27 07:00:51;;;;;;;1.73;1.30;;;;;;;0.78;100.00;100249.19;4976015;28;20215;-66
2023/11/27 07:03:19;;;;;;;2.83;2.63;;;;;;;0.64;100.00;100255.06;4974594;28;20206;-65
2023/11/27 07:05:50;;;;;;;3.85;2.08;;;;;;;0.73;100.00;100251.47;4980414;28;20191;-66
2023/11/27 07:08:18;;;;;;;2.08;1.38;;;;;;;0.81;100.00;100251.56;4976475;28;20187;-65
2023/11/27 07:10:47;;;;;;;3.42;2.08;;;;;;;0.91;100.00;100246.97;4980076;28;20569;-70
2023/11/27 07:13:16;;;;;;;7.45;1.90;;;;;;;0.93;100.00;100246.81;4987552;28;20203;-66
2023/11/27 07:15:44;;;;;;;1.98;1.67;;;;;;;1.01;100.00;100253.03;4976139;28;20682;-67
2023/11/27 07:18:13;;;;;;;2.13;1.30;;;;;;;0.94;100.00;100257.31;4972012;28;20196;-67
2023/11/27 07:20:49;;;;;;;3.00;1.73;;;;;;;1.18;100.00;100256.63;4981950;28;20195;-65
2023/11/27 07:23:18;;;;;;;3.95;2.85;;;;;;;1.14;100.00;100253.47;4979224;28;20678;-66
2023/11/27 07:25:47;;;;;;;2.15;1.98;;;;;;;1.26;100.00;100246.00;4975432;28;20596;-67
2023/11/27 07:28:16;;;;;;;4.25;2.05;;;;;;;1.31;100.00;100249.03;4972417;28;20282;-68
2023/11/27 07:30:45;;;;;;;3.95;2.47;;;;;;;1.49;100.00;100249.81;4974840;28;20623;-68
2023/11/27 07:33:15;;;;;;;4.40;2.63;;;;;;;1.41;100.00;100243.59;4977261;28;20192;-66
2023/11/27 07:35:44;;;;;;;2.53;2.25;;;;;;;1.37;100.00;100242.25;4977601;28;20188;-68
2023/11/27 07:38:14;;;;;;;3.45;1.67;;;;;;;1.32;100.00;100234.72;4972835;28;20202;-66
2023/11/27 07:40:43;;;;;;;3.08;2.00;;;;;;;1.24;100.00;100238.19;4973646;28;20214;-67
2023/11/27 07:43:12;;;;;;;4.20;2.17;;;;;;;1.24;100.00;100235.53;4973828;28;20710;-67
2023/11/27 07:45:41;;;;;;;3.40;2.58;;;;;;;1.39;100.00;100230.44;4975742;28;20195;-68
2023/11/27 07:48:09;;;;;;;1.52;1.25;;;;;;;1.40;100.00;100232.13;4973859;28;20223;-65
2023/11/27 07:50:38;;;;;;;2.33;2.15;;;;;;;1.41;100.00;100228.44;4979145;28;20235;-65
2023/11/27 07:53:08;;;;;;;1.45;1.25;;;;;;;1.54;100.00;100228.84;4976442;28;20328;-66
2023/11/27 07:55:40;;;;;;;2.10;1.65;;;;;;;1.78;100.00;100230.78;4973572;28;20223;-66
2023/11/27 07:58:08;;;;;;;1.75;1.48;;;;;;;1.70;100.00;100228.06;4977694;28;20613;-67
2023/11/27 08:00:38;;;;;;;2.08;1.45;;;;;;;1.71;100.00;100219.06;4981987;28;20196;-66
2023/11/27 08:03:07;;;;;;;2.47;2.25;;;;;;;1.68;100.00;100219.41;4981454;28;20246;-66
2023/11/27 08:05:38;;;;;;;1.45;1.02;;;;;;;1.69;100.00;100224.56;4984511;28;20235;-67
2023/11/27 08:08:08;;;;;;;1.20;0.80;;;;;;;1.74;100.00;100224.91;4980997;28;20200;-68
2023/11/27 08:10:38;;;;;;;1.70;1.45;;;;;;;1.81;100.00;100230.44;4977707;28;20207;-66
2023/11/27 08:13:08;;;;;;;2.25;2.05;;;;;;;1.86;99.55;100221.94;4973057;28;20187;-66
2023/11/27 08:15:37;;;;;;;2.05;1.10;;;;;;;1.82;99.88;100225.94;4975196;28;20302;-66
2023/11/27 08:18:06;;;;;;;2.65;1.77;;;;;;;1.82;100.00;100226.78;4982537;28;20253;-66
2023/11/27 08:20:38;;;;;;;1.40;1.00;;;;;;;1.80;100.00;100227.91;4977105;28;20206;-67
2023/11/27 08:23:06;;;;;;;3.33;1.92;;;;;;;1.90;99.63;100233.94;4969913;28;20192;-68
2023/11/27 08:25:37;;;;;;;1.67;1.25;;;;;;;1.70;98.82;100228.06;4976372;28;20241;-67
2023/11/27 08:28:07;;;;;;;1.60;1.50;;;;;;;1.76;99.42;100227.41;4976838;28;20203;-67
2023/11/27 08:30:36;;;;;;;2.97;1.85;;;;;;;1.83;99.57;100228.47;4974262;28;20207;-68
2023/11/27 08:33:04;;;;;;;1.10;0.98;;;;;;;1.85;99.44;100231.78;4971336;28;20246;-68
2023/11/27 08:35:34;;;;;;;2.88;1.48;;;;;;;1.91;100.00;100220.47;4977696;28;20310;-68
2023/11/27 08:38:04;;;;;;;1.35;0.95;;;;;;;1.98;99.09;100221.50;4974747;28;20195;-67
2023/11/27 08:40:33;;;;;;;2.03;1.33;;;;;;;2.00;98.57;100224.81;4983006;28;20297;-67
2023/11/27 08:43:02;;;;;;;3.50;1.13;;;;;;;2.13;97.61;100225.16;4973853;28;20210;-67
2023/11/27 08:45:33;;;;;;;1.80;1.17;;;;;;;2.04;97.44;100225.31;4974034;28;20218;-67
2023/11/27 08:48:03;;;;;;;2.60;1.70;;;;;;;2.00;97.96;100219.47;4969731;28;20618;-67
2023/11/27 08:50:36;;;;;;;2.20;2.00;;;;;;;2.00;98.40;100211.47;4975970;28;20581;-68
2023/11/27 08:53:07;;;;;;;0.90;0.70;;;;;;;1.94;98.77;100204.13;4978948;28;20603;-67
2023/11/27 08:55:36;;;;;;;1.83;1.73;;;;;;;1.87;99.24;100213.78;4977187;28;20222;-67
2023/11/27 08:58:06;;;;;;;2.38;1.77;;;;;;;2.00;98.38;100200.81;4967129;28;20662;-65
2023/11/27 09:00:37;;;;;;;1.35;1.10;;;;;;;1.89;98.52;100201.09;4980016;28;20191;-68
2023/11/27 09:03:06;;;;;;;3.17;2.50;;;;;;;1.99;98.38;100200.94;4985133;28;20205;-67
2023/11/27 09:05:37;;;;;;;6.65;2.47;;;;;;;1.90;98.34;100197.44;4972963;28;20215;-65
2023/11/27 09:08:06;;;;;;;2.15;1.45;;;;;;;2.02;98.86;100190.81;4975211;28;20206;-66
2023/11/27 09:10:36;;;;;;;8.65;2.60;;;;;;;2.03;98.49;100195.13;4979068;28;20207;-66
2023/11/27 09:13:06;;;;;;;4.78;2.22;;;;;;;2.06;98.02;100183.31;4974150;28;20206;-66
2023/11/27 09:15:37;;;;;;;2.15;1.38;;;;;;;2.00;97.53;100175.94;4970276;28;20224;-67
2023/11/27 09:18:06;;;;;;;2.70;1.85;;;;;;;2.18;97.89;100172.13;4968742;28;20199;-67
2023/11/27 09:20:35;;;;;;;1.90;1.40;;;;;;;2.10;97.66;100166.78;4980984;28;20669;-67
2023/11/27 09:23:04;;;;;;;2.58;1.40;;;;;;;2.17;97.29;100173.16;4969027;28;20251;-67
2023/11/27 09:25:33;;;;;;;2.95;1.65;;;;;;;2.18;97.20;100171.28;4974966;28;20219;-66
2023/11/27 09:28:02;;;;;;;1.63;1.15;;;;;;;2.23;96.23;100176.16;4973849;28;20199;-67
2023/11/27 09:30:31;;;;;;;2.88;1.75;;;;;;;2.22;96.85;100179.81;4977258;28;20555;-65
2023/11/27 09:33:01;;;;;;;4.45;1.70;;;;;;;2.53;95.78;100178.97;4975874;28;20246;-66
2023/11/27 09:35:30;;;;;;;2.67;1.95;;;;;;;2.54;95.50;100183.31;4978973;28;20822;-66
2023/11/27 09:37:59;;;;;;;7.75;1.77;;;;;;;2.66;95.12;100172.31;4973326;28;20598;-67
2023/11/27 09:40:34;;;;;;;4.40;1.77;;;;;;;2.78;94.31;100173.63;4973264;28;20191;-66
2023/11/27 09:43:03;;;;;;;2.42;1.77;;;;;;;2.67;93.86;100166.78;4973650;28;20277;-66
2023/11/27 09:45:32;;;;;;;2.30;1.65;;;;;;;2.86;93.80;100162.91;4972403;28;20310;-70
2023/11/27 09:48:10;;;;;;;5.68;1.75;;;;;;;3.08;92.09;100161.34;4975391;28;20200;-66
2023/11/27 09:50:40;;;;;;;1.15;1.02;;;;;;;3.06;91.03;100154.34;4973417;28;20262;-68
2023/11/27 09:53:10;;;;;;;2.00;1.80;;;;;;;2.78;91.02;100155.75;4973436;28;20199;-67
2023/11/27 09:55:41;;;;;;;2.92;2.63;;;;;;;2.88;92.25;100151.06;4978958;28;20220;-68
2023/11/27 09:58:10;;;;;;;1.63;1.52;;;;;;;2.91;91.43;100144.50;4973421;28;20194;-67
2023/11/27 10:00:41;;;;;;;1.60;1.50;;;;;;;3.06;91.55;100135.63;4978084;28;20192;-66
2023/11/27 10:03:12;;;;;;;2.88;1.27;;;;;;;3.02;91.60;100133.47;4973019;28;20198;-66
2023/11/27 10:05:43;;;;;;;5.10;2.28;;;;;;;3.16;91.24;100130.06;4975291;28;20199;-65
2023/11/27 10:08:11;;;;;;;1.58;1.30;;;;;;;3.27;90.61;100136.88;4975236;28;20200;-67
2023/11/27 10:10:44;;;;;;;1.77;1.55;;;;;;;3.26;90.16;100125.34;4972873;28;20192;-62
2023/11/27 10:13:13;;;;;;;2.45;1.42;;;;;;;3.25;90.99;100115.66;4977794;28;20188;-65
2023/11/27 10:15:58;;;;;;;1.55;1.25;;;;;;;3.23;91.48;100112.34;4976367;28;20213;-63
2023/11/27 10:18:29;;;;;;;1.95;1.48;;;;;;;3.32;91.48;100110.47;4980638;28;20227;-64
2023/11/27 10:20:58;;;;;;;2.35;1.58;;;;;;;3.31;89.97;100108.78;4986203;28;20318;-64
2023/11/27 10:23:28;;;;;;;4.72;2.20;;;;;;;3.24;91.34;100102.50;4980971;28;20195;-64
2023/11/27 10:25:57;;;;;;;4.22;2.20;;;;;;;3.33;90.99;100102.28;4979056;28;20266;-65
2023/11/27 10:28:41;;;;;;;6.60;3.72;;;;;;;3.39;90.37;100100.72;4982802;28;20207;-63
2023/11/27 10:31:30;;;;;;;3.70;1.70;;;;;;;3.21;92.08;100092.97;4974257;28;20298;-64
2023/11/27 10:34:01;;;;;;;3.38;2.40;;;;;;;3.38;90.93;100093.72;4974489;28;20268;-65
2023/11/27 10:36:30;;;;;;;5.03;2.65;;;;;;;3.62;91.39;100082.06;4976334;28;20571;-64
2023/11/27 10:39:15;;;;;;;8.05;4.50;;;;;;;3.56;92.17;100078.22;4976943;28;20226;-65
2023/11/27 10:41:46;;;;;;;7.07;2.40;;;;;;;3.42;91.03;100071.81;4974715;28;20187;-64
2023/11/27 10:44:17;;;;;;;3.97;2.75;;;;;;;3.48;91.06;100075.63;4978185;28;20218;-65
2023/11/27 10:46:46;;;;;;;4.85;2.03;;;;;;;3.35;92.83;100072.66;4974457;28;20612;-65
2023/11/27 10:49:17;;;;;;;2.78;2.13;;;;;;;3.56;92.88;100072.03;4982359;28;20278;-64
2023/11/27 10:51:47;;;;;;;4.28;3.20;;;;;;;3.51;93.20;100075.25;4976074;28;20223;-63
2023/11/27 10:54:17;;;;;;;2.40;1.85;;;;;;;3.55;93.14;100073.88;4978950;28;20266;-64
2023/11/27 10:56:47;;;;;;;3.63;2.50;;;;;;;3.60;92.33;100066.16;4967440;28;20195;-64
2023/11/27 10:59:17;;;;;;;4.90;2.67;;;;;;;3.60;92.05;100055.47;4979434;28;20599;-64
2023/11/27 11:01:48;;;;;;;5.28;2.10;;;;;;;3.38;93.96;100054.44;4973821;28;20187;-64
2023/11/27 11:04:26;;;;;;;4.45;1.92;;;;;;;3.43;93.52;100051.25;4975924;28;20219;-65
2023/11/27 11:06:58;;;;;;;4.03;2.15;;;;;;;3.37;93.95;100043.91;4977650;28;20226;-65
2023/11/27 11:09:29;;;;;;;3.05;2.30;;;;;;;3.17;94.82;100037.34;4976546;28;20199;-65
2023/11/27 11:12:00;;;;;;;5.00;2.78;;;;;;;3.45;94.24;100035.84;4983526;28;20629;-65
2023/11/27 11:14:31;;;;;;;6.50;2.80;;;;;;;3.19;95.01;100038.00;4989108;28;20223;-65
2023/11/27 11:17:11;;;;;;;3.70;2.30;;;;;;;3.31;94.73;100040.09;4977795;28;20214;-65
2023/11/27 11:19:49;;;;;;;6.53;3.17;;;;;;;3.34;94.12;100030.91;4975592;28;20655;-65
2023/11/27 11:22:30;;;;;;;4.20;3.42;;;;;;;3.12;96.44;100037.03;4978334;28;20197;-63
2023/11/27 11:25:09;;;;;;;3.33;2.20;;;;;;;3.26;95.45;100023.75;4977565;28;20273;-64
2023/11/27 11:27:46;;;;;;;2.38;1.70;;;;;;;3.19;94.42;100019.31;4975994;28;20279;-64
2023/11/27 11:30:15;;;;;;;8.65;2.78;;;;;;;3.15;95.39;100015.31;4979158;28;20219;-64
2023/11/27 11:32:46;;;;;;;3.45;1.67;;;;;;;3.24;95.06;100011.59;4971091;28;20294;-64
2023/11/27 11:35:18;;;;;;;2.33;2.13;;;;;;;3.12;94.78;100008.47;4975150;28;20629;-64
2023/11/27 11:37:49;;;;;;;5.80;3.80;;;;;;;3.06;94.33;100004.66;4971360;28;20675;-63
2023/11/27 11:40:19;;;;;;;2.10;1.50;;;;;;;2.87;95.75;100006.91;4977140;28;20188;-63
2023/11/27 11:42:51;;;;;;;5.03;2.58;;;;;;;2.72;96.45;100004.13;4975297;28;20658;-64